Yuba City, CA

11:51 AM PST on March 05, 2015 (GMT -0800)
Yuba County | Change Station
CLOSE
Current Station
Airport
Location: Marysville,
Elevation: 59 ft
Nearby Weather Stations

Elev 59 ft 39.10 °N, 121.57 °W | Updated 58 minutes ago

Clear
Clear
62 °F
Feels Like 62 °F
N
7
Wind Variable Wind from NNW

Today
High -- | Low -- °F
--% Chance of Precip.
Yesterday
High -- | Low -- °F
Precip. -- in
6:33 AM 6:03 PM
Full, 100% visible
Pressure 30.37 in
Visibility 10.0 miles
Clouds Clear
Dew Point 38 °F
Humidity 41%
Rainfall 0.00 in
Snow Depth Not available.
UV 5 out of 12
Pollen 8.00 out of 12
Air Quality Not available.
Flu Activity Not available.
METAR KMYV 051853Z AUTO 33006KT 10SM CLR 17/03 A3036 RMK AO2 SLP284 T01670033

More Conditions Fewer Conditions

Pressure 30.37 in
Visibility 10.0 miles
Clouds Clear
Dew Point 38 °F
Humidity 41%
Rainfall 0.00 in
Snow Depth Not available.
UV 5 out of 12
Pollen 8.00 out of 12
Air Quality Not available.
Flu Activity Not available.
METAR KMYV 051853Z AUTO 33006KT 10SM CLR 17/03 A3036 RMK AO2 SLP284 T01670033

More Conditions Fewer Conditions

10-Day Weather Forecast

Almanac

Astronomy

Mar. 05, 2015 Rise Set
Actual Time
Civil Twilight
Nautical Twilight
Astronomical Twilight
Moon
Length of Visible Light
Length of Day
Tomorrow will be .
, % of the Moon is Illuminated

Today's Extremes

State Highs State Lows

Community

WunderPhotos

Upload Photos

1,802,929 photos uploaded!

WunderBlogs® & News

Nearby

Air Quality

  Air Quality AQ Index Pollutant
Not available.

Snow Depth

Station Depth Elevation

Earthquake Activity

City Distance Mag. Time & Date
Minimum magnitude displayed is 2.5.

Coastal Water Temperatures

Place Temperature

Nearby Weather Stations